createdAt,value
2018-05-18T00:01:31.355Z,5.40
2018-05-18T00:04:02.779Z,3.80
2018-05-18T00:06:35.217Z,3.80
2018-05-18T00:09:07.275Z,5.70
2018-05-18T00:11:37.354Z,4.37
2018-05-18T00:14:08.770Z,4.23
2018-05-18T00:16:40.108Z,4.27
2018-05-18T00:19:10.495Z,4.17
2018-05-18T00:21:40.465Z,4.27
2018-05-18T00:24:11.845Z,3.87
2018-05-18T00:26:43.326Z,4.17
2018-05-18T00:29:13.602Z,5.07
2018-05-18T00:31:45.912Z,3.60
2018-05-18T00:34:17.313Z,3.87
2018-05-18T00:36:48.869Z,5.33
2018-05-18T00:39:21.197Z,5.07
2018-05-18T00:41:52.708Z,4.77
2018-05-18T00:44:24.672Z,5.03
2018-05-18T00:46:54.008Z,4.90
2018-05-18T00:49:24.532Z,3.90
2018-05-18T00:51:55.012Z,4.40
2018-05-18T00:54:26.371Z,4.53
2018-05-18T00:56:56.929Z,4.83
2018-05-18T00:59:28.323Z,4.63
2018-05-18T01:02:00.318Z,4.37
2018-05-18T01:04:31.606Z,4.00
2018-05-18T01:07:04.494Z,4.50
2018-05-18T01:09:36.227Z,4.83
2018-05-18T01:12:07.766Z,4.43
2018-05-18T01:14:40.812Z,4.53
2018-05-18T01:17:11.179Z,4.40
2018-05-18T01:19:41.552Z,4.23
2018-05-18T01:22:12.922Z,4.93
2018-05-18T01:24:42.654Z,4.93
2018-05-18T01:27:12.547Z,4.67
2018-05-18T01:29:42.911Z,5.73
2018-05-18T01:32:12.713Z,4.93
2018-05-18T01:34:44.019Z,4.80
2018-05-18T01:37:14.037Z,5.47
2018-05-18T01:39:43.736Z,5.30
2018-05-18T01:42:13.796Z,4.80
2018-05-18T01:44:44.416Z,4.57
2018-05-18T01:47:15.687Z,4.87
2018-05-18T01:49:46.170Z,5.30
2018-05-18T01:52:17.559Z,5.30
2018-05-18T01:54:48.870Z,5.10
2018-05-18T01:57:21.142Z,4.60
2018-05-18T01:59:53.403Z,5.00
2018-05-18T02:02:23.403Z,3.80
2018-05-18T02:04:54.895Z,6.00
2018-05-18T02:07:26.399Z,4.97
2018-05-18T02:09:57.919Z,5.07
2018-05-18T02:12:27.917Z,5.37
2018-05-18T02:14:59.732Z,5.10
2018-05-18T02:17:29.107Z,4.87
2018-05-18T02:19:59.129Z,5.20
2018-05-18T02:22:31.109Z,4.57
2018-05-18T02:25:03.687Z,5.37
2018-05-18T02:27:34.889Z,5.03
2018-05-18T02:30:04.804Z,5.33
2018-05-18T02:32:35.021Z,5.23
2018-05-18T02:35:07.783Z,4.37
2018-05-18T02:37:38.241Z,5.37
2018-05-18T02:40:08.250Z,5.07
2018-05-18T02:42:39.221Z,5.03
2018-05-18T02:45:10.522Z,4.90
2018-05-18T02:47:41.956Z,5.57
2018-05-18T02:50:12.341Z,4.60
2018-05-18T02:52:42.821Z,5.57
2018-05-18T02:55:13.301Z,4.93
2018-05-18T02:57:45.194Z,5.80
2018-05-18T03:00:15.325Z,5.83
2018-05-18T03:02:46.215Z,5.27
2018-05-18T03:05:16.176Z,4.53
2018-05-18T03:07:46.211Z,5.33
2018-05-18T03:10:16.331Z,5.00
2018-05-18T03:12:47.219Z,5.57
2018-05-18T03:15:17.212Z,4.80
2018-05-18T03:17:48.851Z,5.50
2018-05-18T03:20:18.717Z,5.27
2018-05-18T03:22:50.078Z,4.83
2018-05-18T03:25:21.577Z,5.10
2018-05-18T03:27:51.949Z,4.40
2018-05-18T03:30:22.377Z,5.43
2018-05-18T03:32:52.361Z,6.10
2018-05-18T03:35:22.353Z,5.37
2018-05-18T03:37:53.869Z,5.47
2018-05-18T03:40:23.444Z,6.40
2018-05-18T03:42:55.448Z,5.97
2018-05-18T03:45:27.348Z,5.03
2018-05-18T03:47:57.356Z,5.33
2018-05-18T03:50:28.794Z,5.43
2018-05-18T03:52:58.713Z,5.07
2018-05-18T03:55:30.089Z,5.87
2018-05-18T03:58:01.140Z,5.27
2018-05-18T04:00:31.939Z,5.53
2018-05-18T04:03:42.092Z,5.03
2018-05-18T04:06:56.670Z,4.97
2018-05-18T04:09:28.579Z,5.23
2018-05-18T04:11:59.102Z,4.73
2018-05-18T04:14:30.530Z,5.07
2018-05-18T04:17:01.991Z,5.33
2018-05-18T04:19:33.416Z,5.67
2018-05-18T04:22:05.381Z,5.20
2018-05-18T04:24:35.116Z,5.03
2018-05-18T04:27:04.608Z,4.60
2018-05-18T04:29:35.577Z,5.00
2018-05-18T04:32:07.163Z,5.47
2018-05-18T04:34:35.785Z,5.23
2018-05-18T04:37:06.247Z,4.90
2018-05-18T04:39:36.708Z,4.77
2018-05-18T04:42:07.065Z,6.57
2018-05-18T04:44:39.091Z,5.20
2018-05-18T04:47:09.070Z,5.73
2018-05-18T04:49:40.556Z,5.47
2018-05-18T04:52:11.208Z,4.33
2018-05-18T04:54:42.550Z,4.23
2018-05-18T04:57:13.859Z,4.57
2018-05-18T04:59:45.217Z,4.90
2018-05-18T05:02:14.349Z,4.77
2018-05-18T05:04:45.762Z,4.77
2018-05-18T05:07:16.270Z,4.70
2018-05-18T05:09:46.236Z,5.27
2018-05-18T05:12:17.653Z,4.10
2018-05-18T05:14:49.217Z,4.40
2018-05-18T05:17:21.662Z,5.23
2018-05-18T05:19:53.051Z,4.57
2018-05-18T05:22:24.046Z,4.67
2018-05-18T05:24:55.399Z,4.33
2018-05-18T05:27:25.462Z,5.43
2018-05-18T05:29:56.109Z,5.73
2018-05-18T05:32:26.235Z,4.80
2018-05-18T05:34:57.872Z,6.03
2018-05-18T05:37:29.253Z,6.03
2018-05-18T05:39:59.916Z,6.43
2018-05-18T05:42:29.840Z,4.87
2018-05-18T05:44:59.788Z,4.23
2018-05-18T05:47:29.655Z,4.70
2018-05-18T05:50:01.165Z,4.60
2018-05-18T05:52:32.756Z,5.07
2018-05-18T05:55:02.537Z,5.27
2018-05-18T05:57:34.268Z,5.13
2018-05-18T06:00:04.354Z,4.57
2018-05-18T06:02:33.575Z,5.10
2018-05-18T06:05:05.248Z,5.00
2018-05-18T06:07:37.458Z,5.30
2018-05-18T06:10:07.389Z,4.97
2018-05-18T06:12:37.982Z,5.20
2018-05-18T06:15:09.611Z,4.83
2018-05-18T06:17:40.970Z,5.07
2018-05-18T06:20:12.959Z,4.37
2018-05-18T06:22:43.569Z,5.47
2018-05-18T06:25:15.065Z,4.53
2018-05-18T06:27:46.368Z,5.67
2018-05-18T06:30:16.460Z,5.10
2018-05-18T06:32:48.215Z,5.17
2018-05-18T06:35:21.404Z,4.30
2018-05-18T06:37:52.514Z,4.63
2018-05-18T06:40:23.971Z,5.07
2018-05-18T06:42:53.922Z,4.77
2018-05-18T06:45:23.865Z,5.13
2018-05-18T06:47:55.304Z,4.27
2018-05-18T06:50:26.740Z,4.90
2018-05-18T06:52:58.202Z,5.10
2018-05-18T06:55:30.130Z,4.67
2018-05-18T06:58:00.620Z,4.37
2018-05-18T07:00:32.068Z,4.83
2018-05-18T07:03:02.117Z,4.05
2018-05-18T07:05:31.547Z,4.40
2018-05-18T07:08:03.478Z,5.47
2018-05-18T07:10:35.027Z,4.45
2018-05-18T07:13:06.275Z,4.55
2018-05-18T07:15:36.290Z,4.30
2018-05-18T07:18:07.629Z,5.25
2018-05-18T07:20:37.671Z,4.47
2018-05-18T07:23:09.281Z,4.67
2018-05-18T07:25:39.399Z,4.07
2018-05-18T07:28:11.342Z,4.30
2018-05-18T07:30:41.561Z,4.47
2018-05-18T07:33:13.506Z,5.47
2018-05-18T07:35:44.877Z,4.70
2018-05-18T07:38:15.092Z,4.10
2018-05-18T07:40:45.524Z,4.67
2018-05-18T07:43:15.440Z,4.77
2018-05-18T07:45:47.343Z,3.60
2018-05-18T07:48:18.729Z,4.70
2018-05-18T07:50:50.665Z,4.10
2018-05-18T07:53:20.689Z,4.10
2018-05-18T07:55:53.038Z,4.20
2018-05-18T07:58:23.475Z,3.90
2018-05-18T08:00:54.359Z,4.43
2018-05-18T08:03:25.509Z,4.27
2018-05-18T08:05:56.119Z,4.20
2018-05-18T08:08:26.727Z,4.67
2018-05-18T08:10:58.111Z,4.65
2018-05-18T08:13:28.126Z,3.95
2018-05-18T08:15:59.566Z,4.90
2018-05-18T08:18:30.913Z,4.97
2018-05-18T08:21:03.713Z,4.30
2018-05-18T08:23:45.592Z,4.30
2018-05-18T08:26:17.974Z,4.10
2018-05-18T08:29:24.950Z,4.00
2018-05-18T08:31:56.775Z,4.55
2018-05-18T08:34:26.692Z,4.35
2018-05-18T08:36:58.256Z,3.97
2018-05-18T08:39:31.205Z,4.33
2018-05-18T08:42:00.695Z,4.40
2018-05-18T08:44:31.881Z,4.20
2018-05-18T08:47:03.800Z,4.22
2018-05-18T08:49:34.175Z,3.90
2018-05-18T08:52:05.545Z,4.28
2018-05-18T08:54:35.518Z,4.57
2018-05-18T08:57:09.360Z,4.45
2018-05-18T08:59:39.761Z,4.37
2018-05-18T09:02:12.238Z,4.07
2018-05-18T09:04:44.663Z,4.28
2018-05-18T09:07:15.923Z,4.43
2018-05-18T09:09:46.398Z,4.60
2018-05-18T09:12:17.038Z,4.22
2018-05-18T09:14:48.484Z,4.62
2018-05-18T09:17:19.850Z,5.35
2018-05-18T09:19:50.334Z,4.82
2018-05-18T09:22:20.352Z,5.72
2018-05-18T09:24:50.660Z,4.82
2018-05-18T09:27:20.022Z,4.60
2018-05-18T09:29:49.966Z,5.12
2018-05-18T09:32:21.851Z,4.50
2018-05-18T09:34:52.345Z,4.37
2018-05-18T09:37:22.238Z,4.35
2018-05-18T09:39:53.638Z,4.05
2018-05-18T09:42:23.286Z,4.03
2018-05-18T09:44:53.105Z,5.62
2018-05-18T09:47:23.035Z,5.78
2018-05-18T09:49:53.257Z,10.70
2018-05-18T09:52:24.423Z,6.22
2018-05-18T09:54:54.710Z,4.40
2018-05-18T09:57:24.233Z,4.40
2018-05-18T09:59:53.261Z,4.57
2018-05-18T10:02:25.377Z,6.15
2018-05-18T10:04:57.044Z,9.32
2018-05-18T10:07:26.174Z,7.90
2018-05-18T10:09:57.904Z,5.12
2018-05-18T10:12:29.444Z,4.03
2018-05-18T10:14:58.581Z,4.85
2018-05-18T10:17:29.949Z,5.37
2018-05-18T10:20:02.043Z,5.30
2018-05-18T10:22:31.078Z,5.75
2018-05-18T10:25:01.809Z,5.47
2018-05-18T10:27:32.186Z,5.00
2018-05-18T10:30:02.323Z,5.65
2018-05-18T10:32:33.725Z,5.28
2018-05-18T10:35:03.502Z,5.32
2018-05-18T10:37:33.408Z,5.20
2018-05-18T10:40:04.845Z,4.90
2018-05-18T10:42:35.185Z,4.93
2018-05-18T10:45:04.272Z,4.95
2018-05-18T10:47:35.621Z,5.15
2018-05-18T10:50:08.282Z,5.50
2018-05-18T10:52:38.116Z,6.18
2018-05-18T10:55:08.448Z,4.85
2018-05-18T10:57:38.869Z,4.93
2018-05-18T11:00:10.320Z,5.25
2018-05-18T11:02:40.238Z,5.20
2018-05-18T11:05:12.158Z,4.62
2018-05-18T11:07:42.001Z,5.22
2018-05-18T11:10:13.505Z,4.22
2018-05-18T11:12:43.360Z,4.45
2018-05-18T11:15:13.178Z,5.50
2018-05-18T11:17:44.732Z,6.50
2018-05-18T11:20:14.759Z,6.22
2018-05-18T11:22:44.569Z,5.35
2018-05-18T11:25:14.470Z,5.53
2018-05-18T11:27:45.876Z,6.05
2018-05-18T11:30:15.233Z,6.40
2018-05-18T11:32:46.644Z,5.00
2018-05-18T11:35:18.354Z,5.43
2018-05-18T11:37:48.357Z,5.68
2018-05-18T11:40:19.794Z,4.62
2018-05-18T11:42:49.402Z,5.03
2018-05-18T11:45:21.280Z,5.22
2018-05-18T11:47:51.172Z,5.47
2018-05-18T11:50:22.635Z,5.97
2018-05-18T11:52:52.566Z,5.45
2018-05-18T11:55:22.473Z,5.65
2018-05-18T11:57:52.391Z,5.32
2018-05-18T12:00:22.784Z,5.85
2018-05-18T12:02:54.278Z,5.35
2018-05-18T12:05:26.088Z,5.80
2018-05-18T12:07:57.502Z,5.82
2018-05-18T12:10:27.206Z,5.80
2018-05-18T12:12:58.200Z,5.65
2018-05-18T12:15:28.143Z,4.97
2018-05-18T12:17:59.516Z,5.22
2018-05-18T12:20:31.432Z,5.10
2018-05-18T12:23:00.508Z,4.65
2018-05-18T12:25:32.452Z,5.35
2018-05-18T12:28:02.405Z,4.03
2018-05-18T12:30:34.442Z,4.20
2018-05-18T12:33:04.595Z,4.93
2018-05-18T12:35:35.736Z,5.62
2018-05-18T12:38:07.222Z,5.68
2018-05-18T12:40:36.291Z,6.20
2018-05-18T12:43:08.051Z,6.05
2018-05-18T12:45:40.013Z,5.10
2018-05-18T12:48:09.954Z,5.72
2018-05-18T12:50:41.598Z,5.30
2018-05-18T12:53:13.123Z,5.82
2018-05-18T12:55:45.493Z,5.72
2018-05-18T12:58:15.323Z,5.60
2018-05-18T13:00:46.773Z,5.80
2018-05-18T13:03:16.588Z,5.45
2018-05-18T13:05:46.501Z,5.57
2018-05-18T13:08:18.555Z,5.53
2018-05-18T13:10:49.891Z,5.25
2018-05-18T13:13:19.826Z,4.00
2018-05-18T13:15:51.210Z,4.22
2018-05-18T13:18:22.656Z,5.05
2018-05-18T13:20:54.169Z,5.95
2018-05-18T13:23:24.106Z,4.78
2018-05-18T13:25:54.200Z,5.57
2018-05-18T13:28:24.222Z,5.37
2018-05-18T13:30:54.148Z,4.78
2018-05-18T13:33:25.591Z,5.25
2018-05-18T13:35:57.225Z,4.40
2018-05-18T13:38:29.163Z,4.07
2018-05-18T13:40:58.799Z,5.30
2018-05-18T13:43:28.723Z,5.32
2018-05-18T13:45:59.446Z,5.03
2018-05-18T13:48:28.592Z,4.40
2018-05-18T13:51:00.714Z,3.28
2018-05-18T13:53:32.171Z,4.05
2018-05-18T13:56:02.189Z,4.50
2018-05-18T13:58:32.211Z,5.00
2018-05-18T14:01:03.560Z,5.25
2018-05-18T14:03:33.497Z,4.55
2018-05-18T14:06:03.455Z,5.37
2018-05-18T14:08:34.948Z,5.40
2018-05-18T14:11:06.518Z,5.62
2018-05-18T14:13:36.405Z,4.97
2018-05-18T14:16:06.169Z,5.43
2018-05-18T14:18:36.922Z,4.80
2018-05-18T14:21:07.148Z,4.90
2018-05-18T14:23:37.112Z,4.97
2018-05-18T14:26:06.593Z,5.82
2018-05-18T14:28:38.053Z,4.97
2018-05-18T14:31:09.387Z,4.43
2018-05-18T14:33:39.382Z,4.15
2018-05-18T14:36:09.805Z,5.00
2018-05-18T14:38:39.554Z,4.82
2018-05-18T14:41:11.108Z,4.53
2018-05-18T14:43:42.489Z,5.12
2018-05-18T14:46:16.173Z,4.20
2018-05-18T14:48:47.251Z,4.70
2018-05-18T14:51:19.141Z,4.68
2018-05-18T14:53:49.514Z,4.43
2018-05-18T14:56:20.172Z,4.03
2018-05-18T14:58:50.352Z,4.12
2018-05-18T15:01:20.811Z,4.40
2018-05-18T15:03:52.574Z,4.97
2018-05-18T15:06:23.041Z,4.12
2018-05-18T15:08:54.408Z,4.30
2018-05-18T15:11:24.316Z,4.68
2018-05-18T15:13:55.931Z,4.60
2018-05-18T15:16:27.558Z,3.78
2018-05-18T15:18:59.393Z,4.78
2018-05-18T15:21:29.288Z,4.70
2018-05-18T15:24:00.233Z,4.37
2018-05-18T15:26:31.602Z,4.45
2018-05-18T15:29:03.992Z,3.90
2018-05-18T15:31:33.758Z,4.07
2018-05-18T15:34:04.165Z,4.75
2018-05-18T15:36:34.903Z,4.50
2018-05-18T15:39:06.571Z,4.68
2018-05-18T15:41:37.471Z,4.07
2018-05-18T15:44:09.082Z,4.62
2018-05-18T15:46:39.415Z,5.43
2018-05-18T15:49:12.537Z,4.57
2018-05-18T15:51:43.032Z,3.90
2018-05-18T15:54:14.738Z,4.53
2018-05-18T15:56:46.384Z,5.37
2018-05-18T15:59:17.976Z,3.97
2018-05-18T16:01:48.353Z,4.15
2018-05-18T16:04:18.549Z,3.60
2018-05-18T16:06:50.315Z,3.55
2018-05-18T16:09:21.765Z,4.57
2018-05-18T16:11:53.268Z,4.97
2018-05-18T16:14:24.765Z,4.70
2018-05-18T16:16:56.355Z,4.07
2018-05-18T16:19:27.800Z,4.60
2018-05-18T16:21:56.676Z,4.20
2018-05-18T16:24:28.282Z,4.68
2018-05-18T16:26:58.702Z,4.10
2018-05-18T16:29:30.978Z,3.95
2018-05-18T16:32:01.501Z,3.62
2018-05-18T16:34:32.832Z,3.75
2018-05-18T16:37:03.321Z,3.43
2018-05-18T16:39:33.566Z,4.13
2018-05-18T16:42:02.741Z,3.40
2018-05-18T16:44:32.647Z,3.10
2018-05-18T16:47:03.088Z,4.20
2018-05-18T16:49:34.339Z,3.27
2018-05-18T16:52:06.184Z,3.72
2018-05-18T16:54:37.757Z,3.65
2018-05-18T16:57:07.636Z,4.90
2018-05-18T16:59:37.720Z,4.28
2018-05-18T17:02:09.410Z,4.37
2018-05-18T17:04:41.261Z,3.62
2018-05-18T17:07:12.855Z,3.70
2018-05-18T17:09:44.880Z,3.67
2018-05-18T17:12:16.236Z,3.47
2018-05-18T17:14:47.145Z,3.23
2018-05-18T17:17:18.725Z,3.10
2018-05-18T17:19:50.810Z,3.95
2018-05-18T17:22:22.440Z,3.22
2018-05-18T17:24:53.983Z,3.72
2018-05-18T17:27:25.954Z,3.60
2018-05-18T17:29:57.326Z,3.85
2018-05-18T17:32:28.311Z,4.85
2018-05-18T17:34:58.797Z,3.58
2018-05-18T17:37:31.010Z,3.75
2018-05-18T17:40:02.485Z,3.27
2018-05-18T17:42:34.107Z,3.63
2018-05-18T17:45:04.077Z,3.67
2018-05-18T17:47:34.063Z,4.40
2018-05-18T17:50:04.019Z,3.97
2018-05-18T17:52:35.133Z,3.70
2018-05-18T17:55:04.740Z,3.12
2018-05-18T17:57:34.677Z,3.87
2018-05-18T18:00:05.811Z,3.90
2018-05-18T18:02:37.098Z,3.67
2018-05-18T18:05:08.176Z,3.57
2018-05-18T18:07:39.831Z,4.13
2018-05-18T18:10:09.752Z,3.63
2018-05-18T18:12:41.662Z,4.40
2018-05-18T18:15:11.810Z,3.95
2018-05-18T18:17:43.133Z,4.40
2018-05-18T18:20:13.057Z,3.70
2018-05-18T18:22:45.057Z,3.22
2018-05-18T18:25:14.942Z,3.05
2018-05-18T18:27:44.894Z,3.50
2018-05-18T18:30:14.017Z,3.42
2018-05-18T18:32:43.966Z,3.60
2018-05-18T18:35:16.021Z,4.70
2018-05-18T18:37:46.040Z,3.53
2018-05-18T18:40:17.190Z,3.65
2018-05-18T18:42:49.404Z,3.72
2018-05-18T18:45:20.016Z,3.27
2018-05-18T18:47:50.666Z,2.93
2018-05-18T18:50:21.321Z,3.40
2018-05-18T18:52:52.967Z,3.60
2018-05-18T18:55:24.949Z,3.55
2018-05-18T18:57:54.945Z,3.60
2018-05-18T19:00:26.475Z,4.17
2018-05-18T19:02:56.382Z,4.50
2018-05-18T19:05:26.293Z,3.40
2018-05-18T19:07:58.708Z,4.17
2018-05-18T19:10:29.097Z,3.33
2018-05-18T19:13:00.804Z,3.83
2018-05-18T19:15:30.281Z,3.87
2018-05-18T19:18:01.587Z,3.77
2018-05-18T19:20:33.092Z,3.00
2018-05-18T19:23:04.561Z,4.33
2018-05-18T19:25:36.476Z,3.87
2018-05-18T19:28:05.736Z,3.77
2018-05-18T19:30:38.216Z,4.27
2018-05-18T19:33:09.603Z,3.93
2018-05-18T19:35:42.731Z,4.40
2018-05-18T19:38:15.016Z,4.40
2018-05-18T19:40:45.730Z,4.47
2018-05-18T19:43:17.191Z,4.40
2018-05-18T19:45:47.802Z,4.33
2018-05-18T19:48:17.848Z,4.50
2018-05-18T19:50:48.277Z,5.20
2018-05-18T19:53:18.316Z,4.20
2018-05-18T19:55:49.782Z,4.80
2018-05-18T19:58:19.791Z,5.07
2018-05-18T20:00:50.920Z,4.30
2018-05-18T20:03:21.391Z,5.07
2018-05-18T20:05:52.360Z,4.57
2018-05-18T20:08:24.002Z,4.30
2018-05-18T20:10:53.154Z,4.20
2018-05-18T20:13:22.890Z,5.07
2018-05-18T20:15:54.940Z,4.07
2018-05-18T20:18:24.350Z,4.67
2018-05-18T20:20:55.682Z,5.00
2018-05-18T20:23:26.979Z,5.78
2018-05-18T20:25:56.958Z,5.10
2018-05-18T20:28:26.663Z,5.80
2018-05-18T20:30:56.556Z,4.27
2018-05-18T20:33:27.480Z,4.77
2018-05-18T20:35:58.073Z,4.97
2018-05-18T20:38:28.475Z,4.97
2018-05-18T20:40:58.898Z,4.80
2018-05-18T20:43:28.808Z,4.50
2018-05-18T20:45:58.904Z,4.30
2018-05-18T20:48:29.507Z,5.73
2018-05-18T20:50:59.836Z,4.97
2018-05-18T20:53:29.942Z,5.20
2018-05-18T20:56:00.479Z,4.03
2018-05-18T20:58:31.020Z,4.53
2018-05-18T21:01:01.189Z,4.40
2018-05-18T21:03:33.117Z,4.17
2018-05-18T21:06:04.288Z,4.80
2018-05-18T21:08:34.596Z,4.20
2018-05-18T21:11:04.594Z,4.13
2018-05-18T21:13:36.250Z,3.77
2018-05-18T21:16:06.803Z,4.07
2018-05-18T21:18:36.953Z,4.83
2018-05-18T21:21:06.188Z,4.40
2018-05-18T21:23:38.537Z,3.80
2018-05-18T21:26:09.545Z,4.13
2018-05-18T21:28:39.471Z,4.37
2018-05-18T21:31:09.454Z,4.27
2018-05-18T21:33:39.865Z,3.90
2018-05-18T21:36:11.264Z,3.77
2018-05-18T21:38:42.929Z,5.33
2018-05-18T21:41:12.856Z,4.00
2018-05-18T21:43:42.832Z,4.43
2018-05-18T21:46:12.448Z,4.43
2018-05-18T21:48:43.861Z,4.37
2018-05-18T21:51:15.367Z,3.93
2018-05-18T21:53:47.140Z,4.97
2018-05-18T21:56:18.764Z,4.20
2018-05-18T21:58:48.880Z,4.07
2018-05-18T22:01:19.913Z,4.00
2018-05-18T22:03:50.785Z,3.63
2018-05-18T22:06:22.231Z,4.60
2018-05-18T22:08:53.255Z,4.33
2018-05-18T22:11:24.428Z,4.60
2018-05-18T22:13:56.447Z,4.40
2018-05-18T22:16:28.588Z,4.30
2018-05-18T22:18:58.557Z,4.30
2018-05-18T22:21:28.593Z,4.80
2018-05-18T22:23:58.795Z,4.57
2018-05-18T22:26:28.452Z,5.13
2018-05-18T22:28:59.345Z,4.73
2018-05-18T22:31:31.404Z,4.70
2018-05-18T22:34:02.737Z,4.97
2018-05-18T22:36:33.922Z,5.17
2018-05-18T22:39:04.526Z,4.97
2018-05-18T22:41:35.066Z,4.53
2018-05-18T22:44:05.883Z,5.00
2018-05-18T22:46:36.275Z,5.60
2018-05-18T22:49:06.803Z,5.73
2018-05-18T22:51:37.614Z,5.57
2018-05-18T22:54:09.041Z,4.73
2018-05-18T22:56:38.734Z,5.10
2018-05-18T22:59:08.777Z,4.90
2018-05-18T23:01:38.866Z,5.60
2018-05-18T23:04:10.183Z,5.03
2018-05-18T23:06:41.676Z,5.30
2018-05-18T23:09:13.672Z,5.10
2018-05-18T23:11:46.035Z,4.80
2018-05-18T23:14:17.368Z,5.27
2018-05-18T23:16:47.535Z,5.87
2018-05-18T23:19:17.904Z,5.70
2018-05-18T23:21:48.372Z,5.20
2018-05-18T23:24:19.177Z,5.67
2018-05-18T23:26:51.781Z,5.23
2018-05-18T23:29:24.296Z,5.20
2018-05-18T23:31:56.419Z,6.13
2018-05-18T23:34:28.118Z,6.00
2018-05-18T23:36:59.677Z,5.47
2018-05-18T23:39:31.184Z,5.23
2018-05-18T23:42:02.530Z,5.47
2018-05-18T23:44:32.611Z,4.87
2018-05-18T23:47:03.909Z,5.40
2018-05-18T23:49:34.657Z,6.30
2018-05-18T23:52:04.617Z,6.53
2018-05-18T23:54:34.584Z,6.30
2018-05-18T23:57:05.989Z,5.20
2018-05-18T23:59:37.898Z,5.20
